sensor_id;sensor_type;location;lat;lon;timestamp;temperature;humidity
18906;DHT22;9585;51.018;4.282;2023-09-12T00:01:06;18.10;99.90
18906;DHT22;9585;51.018;4.282;2023-09-12T00:03:34;18.00;99.90
18906;DHT22;9585;51.018;4.282;2023-09-12T00:06:04;18.00;99.90
18906;DHT22;9585;51.018;4.282;2023-09-12T00:08:31;18.00;99.90
18906;DHT22;9585;51.018;4.282;2023-09-12T00:11:01;18.00;99.90
18906;DHT22;9585;51.018;4.282;2023-09-12T00:13:29;18.00;99.90
18906;DHT22;9585;51.018;4.282;2023-09-12T00:15:58;17.90;99.90
18906;DHT22;9585;51.018;4.282;2023-09-12T00:18:26;17.90;99.90
18906;DHT22;9585;51.018;4.282;2023-09-12T00:20:54;17.90;99.90
18906;DHT22;9585;51.018;4.282;2023-09-12T00:23:24;17.90;99.90
18906;DHT22;9585;51.018;4.282;2023-09-12T00:25:52;18.00;99.90
18906;DHT22;9585;51.018;4.282;2023-09-12T00:28:19;18.00;99.90
18906;DHT22;9585;51.018;4.282;2023-09-12T00:30:47;17.90;99.90
18906;DHT22;9585;51.018;4.282;2023-09-12T00:33:15;17.90;99.90
18906;DHT22;9585;51.018;4.282;2023-09-12T00:35:43;17.90;99.90
18906;DHT22;9585;51.018;4.282;2023-09-12T00:38:11;18.00;99.90
18906;DHT22;9585;51.018;4.282;2023-09-12T00:40:40;18.00;99.90
18906;DHT22;9585;51.018;4.282;2023-09-12T00:43:08;18.00;99.90
18906;DHT22;9585;51.018;4.282;2023-09-12T00:45:36;18.00;99.90
18906;DHT22;9585;51.018;4.282;2023-09-12T00:48:05;18.00;99.90
18906;DHT22;9585;51.018;4.282;2023-09-12T00:50:34;18.00;99.90
18906;DHT22;9585;51.018;4.282;2023-09-12T00:53:03;18.00;99.90
18906;DHT22;9585;51.018;4.282;2023-09-12T00:55:33;18.00;99.90
18906;DHT22;9585;51.018;4.282;2023-09-12T00:58:03;18.00;99.90
18906;DHT22;9585;51.018;4.282;2023-09-12T01:00:30;18.00;99.90
18906;DHT22;9585;51.018;4.282;2023-09-12T01:02:58;18.00;99.90
18906;DHT22;9585;51.018;4.282;2023-09-12T01:05:27;18.00;99.90
18906;DHT22;9585;51.018;4.282;2023-09-12T01:07:56;18.00;99.90
18906;DHT22;9585;51.018;4.282;2023-09-12T01:10:23;18.00;99.90
18906;DHT22;9585;51.018;4.282;2023-09-12T01:12:52;18.00;99.90
18906;DHT22;9585;51.018;4.282;2023-09-12T01:15:21;18.00;99.90
18906;DHT22;9585;51.018;4.282;2023-09-12T01:17:49;18.00;99.90
18906;DHT22;9585;51.018;4.282;2023-09-12T01:20:22;18.00;99.90
18906;DHT22;9585;51.018;4.282;2023-09-12T01:23:14;18.00;99.90
18906;DHT22;9585;51.018;4.282;2023-09-12T01:26:04;18.10;99.90
18906;DHT22;9585;51.018;4.282;2023-09-12T01:28:40;18.10;99.90
18906;DHT22;9585;51.018;4.282;2023-09-12T01:31:10;18.10;99.90
18906;DHT22;9585;51.018;4.282;2023-09-12T01:33:37;18.10;99.90
18906;DHT22;9585;51.018;4.282;2023-09-12T01:36:05;18.20;99.90
18906;DHT22;9585;51.018;4.282;2023-09-12T01:38:33;18.20;99.90
18906;DHT22;9585;51.018;4.282;2023-09-12T01:41:02;18.20;99.90
18906;DHT22;9585;51.018;4.282;2023-09-12T01:43:31;18.20;99.90
18906;DHT22;9585;51.018;4.282;2023-09-12T01:46:02;18.20;99.90
18906;DHT22;9585;51.018;4.282;2023-09-12T01:48:33;18.30;99.90
18906;DHT22;9585;51.018;4.282;2023-09-12T01:51:02;18.20;99.90
18906;DHT22;9585;51.018;4.282;2023-09-12T01:53:31;18.10;99.90
18906;DHT22;9585;51.018;4.282;2023-09-12T01:56:00;18.10;99.90
18906;DHT22;9585;51.018;4.282;2023-09-12T01:58:28;18.10;99.90
18906;DHT22;9585;51.018;4.282;2023-09-12T02:00:58;18.10;99.90
18906;DHT22;9585;51.018;4.282;2023-09-12T02:03:29;18.10;99.90
18906;DHT22;9585;51.018;4.282;2023-09-12T02:05:57;18.10;99.90
18906;DHT22;9585;51.018;4.282;2023-09-12T02:08:25;18.10;99.90
18906;DHT22;9585;51.018;4.282;2023-09-12T02:10:52;18.10;99.90
18906;DHT22;9585;51.018;4.282;2023-09-12T02:13:20;18.10;99.90
18906;DHT22;9585;51.018;4.282;2023-09-12T02:15:47;18.10;99.90
18906;DHT22;9585;51.018;4.282;2023-09-12T02:18:15;18.10;99.90
18906;DHT22;9585;51.018;4.282;2023-09-12T02:20:44;18.10;99.90
18906;DHT22;9585;51.018;4.282;2023-09-12T02:23:12;18.00;99.90
18906;DHT22;9585;51.018;4.282;2023-09-12T02:25:39;18.00;99.90
18906;DHT22;9585;51.018;4.282;2023-09-12T02:28:07;18.00;99.90
18906;DHT22;9585;51.018;4.282;2023-09-12T02:30:38;18.00;99.90
18906;DHT22;9585;51.018;4.282;2023-09-12T02:33:06;18.00;99.90
18906;DHT22;9585;51.018;4.282;2023-09-12T02:35:34;17.90;99.90
18906;DHT22;9585;51.018;4.282;2023-09-12T02:38:03;17.80;99.90
18906;DHT22;9585;51.018;4.282;2023-09-12T02:40:31;17.80;99.90
18906;DHT22;9585;51.018;4.282;2023-09-12T02:42:59;17.80;99.90
18906;DHT22;9585;51.018;4.282;2023-09-12T02:45:26;17.80;99.90
18906;DHT22;9585;51.018;4.282;2023-09-12T02:47:54;17.80;99.90
18906;DHT22;9585;51.018;4.282;2023-09-12T02:50:22;17.80;99.90
18906;DHT22;9585;51.018;4.282;2023-09-12T02:52:49;17.80;99.90
18906;DHT22;9585;51.018;4.282;2023-09-12T02:55:19;17.70;99.90
18906;DHT22;9585;51.018;4.282;2023-09-12T02:57:46;17.70;99.90
18906;DHT22;9585;51.018;4.282;2023-09-12T03:00:14;17.80;99.90
18906;DHT22;9585;51.018;4.282;2023-09-12T03:02:42;17.80;99.90
18906;DHT22;9585;51.018;4.282;2023-09-12T03:05:10;17.70;99.90
18906;DHT22;9585;51.018;4.282;2023-09-12T03:07:38;17.80;99.90
18906;DHT22;9585;51.018;4.282;2023-09-12T03:10:06;17.80;99.90
18906;DHT22;9585;51.018;4.282;2023-09-12T03:12:37;17.80;99.90
18906;DHT22;9585;51.018;4.282;2023-09-12T03:15:05;17.90;99.90
18906;DHT22;9585;51.018;4.282;2023-09-12T03:17:33;17.90;99.90
18906;DHT22;9585;51.018;4.282;2023-09-12T03:20:01;18.00;99.90
18906;DHT22;9585;51.018;4.282;2023-09-12T03:22:32;18.00;99.90
18906;DHT22;9585;51.018;4.282;2023-09-12T03:25:03;17.90;99.90
18906;DHT22;9585;51.018;4.282;2023-09-12T03:27:31;18.00;99.90
18906;DHT22;9585;51.018;4.282;2023-09-12T03:30:01;18.00;99.90
18906;DHT22;9585;51.018;4.282;2023-09-12T03:32:29;18.00;99.90
18906;DHT22;9585;51.018;4.282;2023-09-12T03:34:57;18.00;99.90
18906;DHT22;9585;51.018;4.282;2023-09-12T03:37:25;18.00;99.90
18906;DHT22;9585;51.018;4.282;2023-09-12T03:39:54;18.00;99.90
18906;DHT22;9585;51.018;4.282;2023-09-12T03:42:22;18.00;99.90
18906;DHT22;9585;51.018;4.282;2023-09-12T03:44:49;18.10;99.90
18906;DHT22;9585;51.018;4.282;2023-09-12T03:47:19;18.10;99.90
18906;DHT22;9585;51.018;4.282;2023-09-12T03:49:47;18.10;99.90
18906;DHT22;9585;51.018;4.282;2023-09-12T03:52:14;18.20;99.90
18906;DHT22;9585;51.018;4.282;2023-09-12T03:54:42;18.20;99.90
18906;DHT22;9585;51.018;4.282;2023-09-12T03:57:10;18.10;99.90
18906;DHT22;9585;51.018;4.282;2023-09-12T03:59:38;18.20;99.90
18906;DHT22;9585;51.018;4.282;2023-09-12T04:02:05;18.20;99.90
18906;DHT22;9585;51.018;4.282;2023-09-12T04:04:35;18.20;99.90
18906;DHT22;9585;51.018;4.282;2023-09-12T04:07:03;18.10;99.90
18906;DHT22;9585;51.018;4.282;2023-09-12T04:09:33;18.10;99.90
18906;DHT22;9585;51.018;4.282;2023-09-12T04:12:01;18.00;99.90
18906;DHT22;9585;51.018;4.282;2023-09-12T04:14:29;18.00;99.90
18906;DHT22;9585;51.018;4.282;2023-09-12T04:16:56;18.00;99.90
18906;DHT22;9585;51.018;4.282;2023-09-12T04:19:25;17.90;99.90
18906;DHT22;9585;51.018;4.282;2023-09-12T04:21:56;17.80;99.90
18906;DHT22;9585;51.018;4.282;2023-09-12T04:24:23;17.80;99.90
18906;DHT22;9585;51.018;4.282;2023-09-12T04:26:51;17.70;99.90
18906;DHT22;9585;51.018;4.282;2023-09-12T04:29:19;17.80;99.90
18906;DHT22;9585;51.018;4.282;2023-09-12T04:31:46;17.80;99.90
18906;DHT22;9585;51.018;4.282;2023-09-12T04:34:14;17.80;99.90
18906;DHT22;9585;51.018;4.282;2023-09-12T04:36:41;17.80;99.90
18906;DHT22;9585;51.018;4.282;2023-09-12T04:39:11;17.70;99.90
18906;DHT22;9585;51.018;4.282;2023-09-12T04:41:39;17.80;99.90
18906;DHT22;9585;51.018;4.282;2023-09-12T04:44:07;17.80;99.90
18906;DHT22;9585;51.018;4.282;2023-09-12T04:46:35;17.80;99.90
18906;DHT22;9585;51.018;4.282;2023-09-12T04:49:03;17.70;99.90
18906;DHT22;9585;51.018;4.282;2023-09-12T04:51:31;17.70;99.90
18906;DHT22;9585;51.018;4.282;2023-09-12T04:53:58;17.70;99.90
18906;DHT22;9585;51.018;4.282;2023-09-12T04:56:28;17.70;99.90
18906;DHT22;9585;51.018;4.282;2023-09-12T04:58:55;17.70;99.90
18906;DHT22;9585;51.018;4.282;2023-09-12T05:01:23;17.70;99.90
18906;DHT22;9585;51.018;4.282;2023-09-12T05:03:52;17.70;99.90
18906;DHT22;9585;51.018;4.282;2023-09-12T05:06:19;17.70;99.90
18906;DHT22;9585;51.018;4.282;2023-09-12T05:08:47;17.70;99.90
18906;DHT22;9585;51.018;4.282;2023-09-12T05:11:15;17.70;99.90
18906;DHT22;9585;51.018;4.282;2023-09-12T05:13:44;17.70;99.90
18906;DHT22;9585;51.018;4.282;2023-09-12T05:16:12;17.60;99.90
18906;DHT22;9585;51.018;4.282;2023-09-12T05:18:40;17.60;99.90
18906;DHT22;9585;51.018;4.282;2023-09-12T05:21:07;17.50;99.90
18906;DHT22;9585;51.018;4.282;2023-09-12T05:23:35;17.50;99.90
18906;DHT22;9585;51.018;4.282;2023-09-12T05:26:03;17.50;99.90
18906;DHT22;9585;51.018;4.282;2023-09-12T05:28:31;17.50;99.90
18906;DHT22;9585;51.018;4.282;2023-09-12T05:31:00;17.50;99.90
18906;DHT22;9585;51.018;4.282;2023-09-12T05:33:28;17.40;99.90
18906;DHT22;9585;51.018;4.282;2023-09-12T05:35:56;17.40;99.90
18906;DHT22;9585;51.018;4.282;2023-09-12T05:38:23;17.40;99.90
18906;DHT22;9585;51.018;4.282;2023-09-12T05:40:51;17.40;99.90
18906;DHT22;9585;51.018;4.282;2023-09-12T05:43:19;17.30;99.90
18906;DHT22;9585;51.018;4.282;2023-09-12T05:45:47;17.30;99.90
18906;DHT22;9585;51.018;4.282;2023-09-12T05:48:16;17.30;99.90
18906;DHT22;9585;51.018;4.282;2023-09-12T05:50:44;17.30;99.90
18906;DHT22;9585;51.018;4.282;2023-09-12T05:53:11;17.30;99.90
18906;DHT22;9585;51.018;4.282;2023-09-12T05:55:39;17.30;99.90
18906;DHT22;9585;51.018;4.282;2023-09-12T05:58:07;17.30;99.90
18906;DHT22;9585;51.018;4.282;2023-09-12T06:00:35;17.30;99.90
18906;DHT22;9585;51.018;4.282;2023-09-12T06:03:03;17.40;99.90
18906;DHT22;9585;51.018;4.282;2023-09-12T06:05:33;17.50;99.90
18906;DHT22;9585;51.018;4.282;2023-09-12T06:08:01;17.60;99.90
18906;DHT22;9585;51.018;4.282;2023-09-12T06:10:29;17.70;99.90
18906;DHT22;9585;51.018;4.282;2023-09-12T06:12:57;18.00;99.90
18906;DHT22;9585;51.018;4.282;2023-09-12T06:15:25;18.20;99.90
18906;DHT22;9585;51.018;4.282;2023-09-12T06:17:53;18.50;99.90
18906;DHT22;9585;51.018;4.282;2023-09-12T06:20:21;18.70;99.90
18906;DHT22;9585;51.018;4.282;2023-09-12T06:22:50;18.90;99.90
18906;DHT22;9585;51.018;4.282;2023-09-12T06:25:18;19.20;99.90
18906;DHT22;9585;51.018;4.282;2023-09-12T06:27:46;19.50;99.90
18906;DHT22;9585;51.018;4.282;2023-09-12T06:30:14;19.80;99.90
18906;DHT22;9585;51.018;4.282;2023-09-12T06:32:42;20.10;99.90
18906;DHT22;9585;51.018;4.282;2023-09-12T06:35:09;20.40;99.90
18906;DHT22;9585;51.018;4.282;2023-09-12T06:37:38;20.80;99.90
18906;DHT22;9585;51.018;4.282;2023-09-12T06:43:22;21.80;99.90
18906;DHT22;9585;51.018;4.282;2023-09-12T06:45:58;22.00;99.90
18906;DHT22;9585;51.018;4.282;2023-09-12T06:48:26;22.40;99.90
18906;DHT22;9585;51.018;4.282;2023-09-12T06:50:54;22.20;99.90
18906;DHT22;9585;51.018;4.282;2023-09-12T06:53:22;22.00;99.90
18906;DHT22;9585;51.018;4.282;2023-09-12T06:55:50;21.90;99.90
18906;DHT22;9585;51.018;4.282;2023-09-12T06:58:25;21.80;99.90
18906;DHT22;9585;51.018;4.282;2023-09-12T07:00:53;21.50;99.90
18906;DHT22;9585;51.018;4.282;2023-09-12T07:03:21;21.10;99.90
18906;DHT22;9585;51.018;4.282;2023-09-12T07:05:49;21.10;99.90
18906;DHT22;9585;51.018;4.282;2023-09-12T07:08:17;21.00;99.90
18906;DHT22;9585;51.018;4.282;2023-09-12T07:10:45;20.90;99.90
18906;DHT22;9585;51.018;4.282;2023-09-12T07:13:14;20.50;99.90
18906;DHT22;9585;51.018;4.282;2023-09-12T07:15:56;20.40;99.90
18906;DHT22;9585;51.018;4.282;2023-09-12T07:18:54;20.30;99.90
18906;DHT22;9585;51.018;4.282;2023-09-12T07:24:59;20.10;99.90
18906;DHT22;9585;51.018;4.282;2023-09-12T07:27:32;19.90;99.90
18906;DHT22;9585;51.018;4.282;2023-09-12T07:30:01;19.70;99.90
18906;DHT22;9585;51.018;4.282;2023-09-12T07:36:13;19.50;99.90
18906;DHT22;9585;51.018;4.282;2023-09-12T08:32:12;19.90;99.90
18906;DHT22;9585;51.018;4.282;2023-09-12T08:35:08;19.80;99.90
18906;DHT22;9585;51.018;4.282;2023-09-12T08:38:02;19.70;99.90
18906;DHT22;9585;51.018;4.282;2023-09-12T08:40:48;19.60;99.90
18906;DHT22;9585;51.018;4.282;2023-09-12T08:44:03;19.80;99.90
18906;DHT22;9585;51.018;4.282;2023-09-12T08:53:53;20.70;99.90
18906;DHT22;9585;51.018;4.282;2023-09-12T08:56:45;20.90;99.90
18906;DHT22;9585;51.018;4.282;2023-09-12T08:59:35;21.00;99.90
18906;DHT22;9585;51.018;4.282;2023-09-12T09:05:21;21.60;99.90
18906;DHT22;9585;51.018;4.282;2023-09-12T09:07:58;21.90;99.90
18906;DHT22;9585;51.018;4.282;2023-09-12T09:10:58;21.90;99.90
18906;DHT22;9585;51.018;4.282;2023-09-12T09:13:31;21.90;99.90
18906;DHT22;9585;51.018;4.282;2023-09-12T09:16:12;22.30;99.90
18906;DHT22;9585;51.018;4.282;2023-09-12T09:19:00;22.50;99.90
18906;DHT22;9585;51.018;4.282;2023-09-12T09:22:05;22.40;99.90
18906;DHT22;9585;51.018;4.282;2023-09-12T09:25:11;22.60;99.90
18906;DHT22;9585;51.018;4.282;2023-09-12T09:31:03;22.70;99.90
18906;DHT22;9585;51.018;4.282;2023-09-12T09:33:54;22.30;99.90
18906;DHT22;9585;51.018;4.282;2023-09-12T09:36:33;22.50;99.90
18906;DHT22;9585;51.018;4.282;2023-09-12T09:39:05;22.70;99.90
18906;DHT22;9585;51.018;4.282;2023-09-12T09:41:38;22.50;99.90
18906;DHT22;9585;51.018;4.282;2023-09-12T09:44:09;22.60;99.90
18906;DHT22;9585;51.018;4.282;2023-09-12T09:46:37;22.80;99.90
18906;DHT22;9585;51.018;4.282;2023-09-12T09:49:05;23.20;99.90
18906;DHT22;9585;51.018;4.282;2023-09-12T09:51:41;23.40;99.90
18906;DHT22;9585;51.018;4.282;2023-09-12T09:54:13;23.80;99.90
18906;DHT22;9585;51.018;4.282;2023-09-12T09:56:47;23.90;99.90
18906;DHT22;9585;51.018;4.282;2023-09-12T09:59:22;24.30;99.90
18906;DHT22;9585;51.018;4.282;2023-09-12T10:01:56;24.40;99.90
18906;DHT22;9585;51.018;4.282;2023-09-12T10:04:27;24.50;99.90
18906;DHT22;9585;51.018;4.282;2023-09-12T10:06:56;24.60;99.90
18906;DHT22;9585;51.018;4.282;2023-09-12T10:09:26;24.70;99.90
18906;DHT22;9585;51.018;4.282;2023-09-12T10:11:56;24.80;99.90
18906;DHT22;9585;51.018;4.282;2023-09-12T10:14:27;25.00;99.90
18906;DHT22;9585;51.018;4.282;2023-09-12T10:17:00;25.10;99.90
18906;DHT22;9585;51.018;4.282;2023-09-12T10:19:35;25.20;99.90
18906;DHT22;9585;51.018;4.282;2023-09-12T10:22:08;25.20;99.90
18906;DHT22;9585;51.018;4.282;2023-09-12T10:24:37;25.30;99.90
18906;DHT22;9585;51.018;4.282;2023-09-12T10:27:07;25.40;99.90
18906;DHT22;9585;51.018;4.282;2023-09-12T10:29:38;25.60;99.90
18906;DHT22;9585;51.018;4.282;2023-09-12T10:32:06;25.50;99.90
18906;DHT22;9585;51.018;4.282;2023-09-12T10:34:34;25.20;99.90
18906;DHT22;9585;51.018;4.282;2023-09-12T10:37:04;25.20;99.90
18906;DHT22;9585;51.018;4.282;2023-09-12T10:39:33;25.40;99.90
18906;DHT22;9585;51.018;4.282;2023-09-12T10:42:03;25.50;99.90
18906;DHT22;9585;51.018;4.282;2023-09-12T10:44:32;25.30;99.90
18906;DHT22;9585;51.018;4.282;2023-09-12T10:47:04;25.30;99.90
18906;DHT22;9585;51.018;4.282;2023-09-12T10:49:33;25.40;99.90
18906;DHT22;9585;51.018;4.282;2023-09-12T10:52:01;25.60;99.90
18906;DHT22;9585;51.018;4.282;2023-09-12T10:54:37;25.60;99.90
18906;DHT22;9585;51.018;4.282;2023-09-12T10:57:06;25.50;99.90
18906;DHT22;9585;51.018;4.282;2023-09-12T10:59:35;25.70;99.90
18906;DHT22;9585;51.018;4.282;2023-09-12T11:02:29;25.80;99.90
18906;DHT22;9585;51.018;4.282;2023-09-12T11:04:58;25.70;99.90
18906;DHT22;9585;51.018;4.282;2023-09-12T11:07:33;25.70;99.90
18906;DHT22;9585;51.018;4.282;2023-09-12T11:10:17;25.60;99.90
18906;DHT22;9585;51.018;4.282;2023-09-12T11:12:46;25.50;99.90
18906;DHT22;9585;51.018;4.282;2023-09-12T11:15:14;25.30;99.90
18906;DHT22;9585;51.018;4.282;2023-09-12T11:17:45;25.40;99.90
18906;DHT22;9585;51.018;4.282;2023-09-12T11:20:14;25.70;99.90
18906;DHT22;9585;51.018;4.282;2023-09-12T11:22:43;25.50;99.90
18906;DHT22;9585;51.018;4.282;2023-09-12T11:25:19;25.60;99.90
18906;DHT22;9585;51.018;4.282;2023-09-12T11:28:03;25.80;99.90
18906;DHT22;9585;51.018;4.282;2023-09-12T11:30:31;25.90;99.90
18906;DHT22;9585;51.018;4.282;2023-09-12T11:33:04;26.20;99.90
18906;DHT22;9585;51.018;4.282;2023-09-12T11:35:36;26.50;99.90
18906;DHT22;9585;51.018;4.282;2023-09-12T11:38:04;26.60;99.90
18906;DHT22;9585;51.018;4.282;2023-09-12T11:40:43;26.50;99.90
18906;DHT22;9585;51.018;4.282;2023-09-12T11:43:22;26.60;99.90
18906;DHT22;9585;51.018;4.282;2023-09-12T11:45:50;26.30;99.90
18906;DHT22;9585;51.018;4.282;2023-09-12T11:48:20;26.00;99.90
18906;DHT22;9585;51.018;4.282;2023-09-12T11:50:52;25.90;99.90
18906;DHT22;9585;51.018;4.282;2023-09-12T11:53:24;25.80;99.90
18906;DHT22;9585;51.018;4.282;2023-09-12T11:55:58;25.90;99.90
18906;DHT22;9585;51.018;4.282;2023-09-12T11:58:26;26.00;99.90
18906;DHT22;9585;51.018;4.282;2023-09-12T12:00:58;26.00;99.90
18906;DHT22;9585;51.018;4.282;2023-09-12T12:03:28;25.90;99.90
18906;DHT22;9585;51.018;4.282;2023-09-12T12:05:56;26.10;99.90
18906;DHT22;9585;51.018;4.282;2023-09-12T12:08:27;26.10;99.90
18906;DHT22;9585;51.018;4.282;2023-09-12T12:10:57;25.90;99.90
18906;DHT22;9585;51.018;4.282;2023-09-12T12:13:25;25.50;99.90
18906;DHT22;9585;51.018;4.282;2023-09-12T12:15:54;25.20;99.90
18906;DHT22;9585;51.018;4.282;2023-09-12T12:18:22;25.10;99.90
18906;DHT22;9585;51.018;4.282;2023-09-12T12:20:51;25.10;99.90
18906;DHT22;9585;51.018;4.282;2023-09-12T12:23:20;25.20;99.90
18906;DHT22;9585;51.018;4.282;2023-09-12T12:25:51;25.20;99.90
18906;DHT22;9585;51.018;4.282;2023-09-12T12:28:26;25.40;99.90
18906;DHT22;9585;51.018;4.282;2023-09-12T12:31:23;25.30;99.90
18906;DHT22;9585;51.018;4.282;2023-09-12T12:34:40;25.20;99.90
18906;DHT22;9585;51.018;4.282;2023-09-12T12:37:41;25.10;99.90
18906;DHT22;9585;51.018;4.282;2023-09-12T12:40:44;25.40;99.90
18906;DHT22;9585;51.018;4.282;2023-09-12T12:43:31;25.50;99.90
18906;DHT22;9585;51.018;4.282;2023-09-12T12:46:14;25.50;99.90
18906;DHT22;9585;51.018;4.282;2023-09-12T12:49:36;25.70;99.90
18906;DHT22;9585;51.018;4.282;2023-09-12T12:52:24;25.90;99.90
18906;DHT22;9585;51.018;4.282;2023-09-12T12:56:14;25.80;99.90
18906;DHT22;9585;51.018;4.282;2023-09-12T12:59:00;25.70;99.90
18906;DHT22;9585;51.018;4.282;2023-09-12T13:01:43;25.70;99.90
18906;DHT22;9585;51.018;4.282;2023-09-12T13:04:14;25.30;99.90
18906;DHT22;9585;51.018;4.282;2023-09-12T13:07:06;25.10;99.90
18906;DHT22;9585;51.018;4.282;2023-09-12T13:09:39;25.20;99.90
18906;DHT22;9585;51.018;4.282;2023-09-12T13:12:40;25.30;99.90
18906;DHT22;9585;51.018;4.282;2023-09-12T13:16:01;25.30;99.90
18906;DHT22;9585;51.018;4.282;2023-09-12T13:27:32;24.90;99.90
18906;DHT22;9585;51.018;4.282;2023-09-12T13:36:59;24.50;99.90
18906;DHT22;9585;51.018;4.282;2023-09-12T14:03:28;24.50;99.90
18906;DHT22;9585;51.018;4.282;2023-09-12T14:06:36;24.60;99.90
18906;DHT22;9585;51.018;4.282;2023-09-12T14:13:40;24.40;99.90
18906;DHT22;9585;51.018;4.282;2023-09-12T14:16:14;24.30;99.90
18906;DHT22;9585;51.018;4.282;2023-09-12T15:10:33;23.40;99.90
18906;DHT22;9585;51.018;4.282;2023-09-12T15:13:07;23.20;99.90
18906;DHT22;9585;51.018;4.282;2023-09-12T15:18:11;23.20;99.90
18906;DHT22;9585;51.018;4.282;2023-09-12T15:20:39;23.20;99.90
18906;DHT22;9585;51.018;4.282;2023-09-12T15:23:06;23.20;99.90
18906;DHT22;9585;51.018;4.282;2023-09-12T15:25:35;23.20;99.90
18906;DHT22;9585;51.018;4.282;2023-09-12T15:28:06;23.20;99.90
18906;DHT22;9585;51.018;4.282;2023-09-12T15:43:18;23.20;99.90
18906;DHT22;9585;51.018;4.282;2023-09-12T15:46:22;23.30;99.90
18906;DHT22;9585;51.018;4.282;2023-09-12T15:49:06;23.20;99.90
18906;DHT22;9585;51.018;4.282;2023-09-12T15:54:51;23.30;99.90
18906;DHT22;9585;51.018;4.282;2023-09-12T15:57:25;23.30;99.90
18906;DHT22;9585;51.018;4.282;2023-09-12T16:00:06;23.30;99.90
18906;DHT22;9585;51.018;4.282;2023-09-12T16:03:00;23.20;99.90
18906;DHT22;9585;51.018;4.282;2023-09-12T16:48:09;22.70;99.90
18906;DHT22;9585;51.018;4.282;2023-09-12T16:50:38;22.80;99.90
18906;DHT22;9585;51.018;4.282;2023-09-12T16:53:08;22.80;99.90
18906;DHT22;9585;51.018;4.282;2023-09-12T16:55:36;22.80;99.90
18906;DHT22;9585;51.018;4.282;2023-09-12T16:58:46;22.70;99.90
18906;DHT22;9585;51.018;4.282;2023-09-12T18:47:01;20.70;99.90
18906;DHT22;9585;51.018;4.282;2023-09-12T18:49:28;20.60;99.90
18906;DHT22;9585;51.018;4.282;2023-09-12T18:51:56;20.50;99.90
18906;DHT22;9585;51.018;4.282;2023-09-12T18:54:24;20.40;99.90
18906;DHT22;9585;51.018;4.282;2023-09-12T18:56:51;20.30;99.90
18906;DHT22;9585;51.018;4.282;2023-09-12T18:59:19;20.20;99.90
18906;DHT22;9585;51.018;4.282;2023-09-12T19:01:47;20.20;99.90
18906;DHT22;9585;51.018;4.282;2023-09-12T19:04:22;20.10;99.90
18906;DHT22;9585;51.018;4.282;2023-09-12T19:06:51;20.10;99.90
18906;DHT22;9585;51.018;4.282;2023-09-12T19:09:18;20.10;99.90
18906;DHT22;9585;51.018;4.282;2023-09-12T19:12:09;20.20;99.90
18906;DHT22;9585;51.018;4.282;2023-09-12T19:14:50;20.20;99.90
18906;DHT22;9585;51.018;4.282;2023-09-12T19:17:18;20.10;99.90
18906;DHT22;9585;51.018;4.282;2023-09-12T19:19:47;20.10;99.90
18906;DHT22;9585;51.018;4.282;2023-09-12T19:22:15;20.00;99.90
18906;DHT22;9585;51.018;4.282;2023-09-12T19:24:42;20.00;99.90
18906;DHT22;9585;51.018;4.282;2023-09-12T19:27:09;20.00;99.90
18906;DHT22;9585;51.018;4.282;2023-09-12T19:29:49;20.00;99.90
18906;DHT22;9585;51.018;4.282;2023-09-12T19:32:20;20.00;99.90
18906;DHT22;9585;51.018;4.282;2023-09-12T19:34:52;20.00;99.90
18906;DHT22;9585;51.018;4.282;2023-09-12T19:37:21;19.90;99.90
18906;DHT22;9585;51.018;4.282;2023-09-12T19:39:49;19.80;99.90
18906;DHT22;9585;51.018;4.282;2023-09-12T19:42:20;19.80;99.90
18906;DHT22;9585;51.018;4.282;2023-09-12T19:44:51;19.80;99.90
18906;DHT22;9585;51.018;4.282;2023-09-12T19:47:19;19.70;99.90
18906;DHT22;9585;51.018;4.282;2023-09-12T19:49:47;19.70;99.90
18906;DHT22;9585;51.018;4.282;2023-09-12T19:52:17;19.60;99.90
18906;DHT22;9585;51.018;4.282;2023-09-12T19:54:46;19.50;99.90
18906;DHT22;9585;51.018;4.282;2023-09-12T19:57:13;19.40;99.90
18906;DHT22;9585;51.018;4.282;2023-09-12T19:59:43;19.40;99.90
18906;DHT22;9585;51.018;4.282;2023-09-12T20:02:11;19.40;99.90
18906;DHT22;9585;51.018;4.282;2023-09-12T20:04:39;19.30;99.90
18906;DHT22;9585;51.018;4.282;2023-09-12T20:07:08;19.30;99.90
18906;DHT22;9585;51.018;4.282;2023-09-12T20:09:38;19.30;99.90
18906;DHT22;9585;51.018;4.282;2023-09-12T20:12:08;19.20;99.90
18906;DHT22;9585;51.018;4.282;2023-09-12T20:14:38;19.20;99.90
18906;DHT22;9585;51.018;4.282;2023-09-12T20:17:09;19.20;99.90
18906;DHT22;9585;51.018;4.282;2023-09-12T20:19:42;19.20;99.90
18906;DHT22;9585;51.018;4.282;2023-09-12T20:22:10;19.20;99.90
18906;DHT22;9585;51.018;4.282;2023-09-12T20:24:40;19.10;99.90
18906;DHT22;9585;51.018;4.282;2023-09-12T20:27:08;19.10;99.90
18906;DHT22;9585;51.018;4.282;2023-09-12T20:29:35;19.10;99.90
18906;DHT22;9585;51.018;4.282;2023-09-12T20:32:03;19.00;99.90
18906;DHT22;9585;51.018;4.282;2023-09-12T20:34:31;19.00;99.90
18906;DHT22;9585;51.018;4.282;2023-09-12T20:37:00;18.90;99.90
18906;DHT22;9585;51.018;4.282;2023-09-12T20:39:29;18.90;99.90
18906;DHT22;9585;51.018;4.282;2023-09-12T20:42:00;18.80;99.90
18906;DHT22;9585;51.018;4.282;2023-09-12T20:44:27;18.70;99.90
18906;DHT22;9585;51.018;4.282;2023-09-12T20:46:57;18.60;99.90
18906;DHT22;9585;51.018;4.282;2023-09-12T20:49:25;18.50;99.90
18906;DHT22;9585;51.018;4.282;2023-09-12T20:51:52;18.50;99.90
18906;DHT22;9585;51.018;4.282;2023-09-12T20:54:20;18.50;99.90
18906;DHT22;9585;51.018;4.282;2023-09-12T20:56:48;18.50;99.90
18906;DHT22;9585;51.018;4.282;2023-09-12T20:59:18;18.60;99.90
18906;DHT22;9585;51.018;4.282;2023-09-12T21:01:45;18.70;99.90
18906;DHT22;9585;51.018;4.282;2023-09-12T21:04:13;18.70;99.90
18906;DHT22;9585;51.018;4.282;2023-09-12T21:06:41;18.70;99.90
18906;DHT22;9585;51.018;4.282;2023-09-12T21:09:08;18.70;99.90
18906;DHT22;9585;51.018;4.282;2023-09-12T21:11:40;18.70;99.90
18906;DHT22;9585;51.018;4.282;2023-09-12T21:14:07;18.60;99.90
18906;DHT22;9585;51.018;4.282;2023-09-12T21:16:36;18.50;99.90
18906;DHT22;9585;51.018;4.282;2023-09-12T21:19:04;18.50;99.90
18906;DHT22;9585;51.018;4.282;2023-09-12T21:21:31;18.60;99.90
18906;DHT22;9585;51.018;4.282;2023-09-12T21:23:59;18.70;99.90
18906;DHT22;9585;51.018;4.282;2023-09-12T21:26:26;18.70;99.90
18906;DHT22;9585;51.018;4.282;2023-09-12T21:28:54;18.70;99.90
18906;DHT22;9585;51.018;4.282;2023-09-12T21:31:21;18.70;99.90
18906;DHT22;9585;51.018;4.282;2023-09-12T21:33:51;18.70;99.90
18906;DHT22;9585;51.018;4.282;2023-09-12T21:36:18;18.70;99.90
18906;DHT22;9585;51.018;4.282;2023-09-12T21:38:46;18.70;99.90
18906;DHT22;9585;51.018;4.282;2023-09-12T21:41:13;18.80;99.90
18906;DHT22;9585;51.018;4.282;2023-09-12T21:43:41;18.70;99.90
18906;DHT22;9585;51.018;4.282;2023-09-12T21:46:09;18.70;99.90
18906;DHT22;9585;51.018;4.282;2023-09-12T21:48:36;18.70;99.90
18906;DHT22;9585;51.018;4.282;2023-09-12T21:51:07;18.70;99.90
18906;DHT22;9585;51.018;4.282;2023-09-12T21:53:36;18.70;99.90
18906;DHT22;9585;51.018;4.282;2023-09-12T21:56:04;18.70;99.90